Pops — WDC8157 — position and weather

sailwx.info

Track history (hours):
 
Tides and Currents Weather Stations Pressure Air Temp Water Temp Dewpoint Dewpoint Depression Visibility Wind Speed Wind Dir Waves Ship Positions

Pops

Owner: GORE MARINE CORPORATION, MERIDIAN, GA. More information available from US FCC via Universal Licensing System and Coast Guard Vessel Documentation Center.

Last reported at 2018-Jun-21 20:07 UTC. Time now 2018-Jun-23 19:48 UTC.
Position N 40°33' W 074°02'.

Length 22 m; draft 3.5 m.

Type: Tug. MMSI: 367082540.

Date/timePositionNaut miles runAvg speedWind from/ knotsBaromVisibWave heightAir tempDewpointWater temp
2018-Jun-21 20:07N 40°33' W 074°02'1 5.8
2018-Jun-21 20:01N 40°34' W 074°02'3 5.8
2018-Jun-21 19:31N 40°36' W 074°03'3 5.6
2018-Jun-21 19:00N 40°39' W 074°05'3 6.4
2018-Jun-21 18:30N 40°38' W 074°09'0 0.3
2018-Jun-21 17:38N 40°38' W 074°09'0 0.1
2018-Jun-21 17:21N 40°38' W 074°09'0 0.3
2018-Jun-21 17:01N 40°38' W 074°09'4 7.3
2018-Jun-21 16:31N 40°39' W 074°04'3 6.4
2018-Jun-21 16:00N 40°36' W 074°03'45 5.1
2018-Jun-21 07:19N 39°51' W 074°00'2 6.6
2018-Jun-21 06:59N 39°49' W 074°01'3 6.6
2018-Jun-21 06:30N 39°46' W 074°01'3 6.6
2018-Jun-21 05:59N 39°43' W 074°02'3 6.5
2018-Jun-21 05:30N 39°40' W 074°03'3 6.6
2018-Jun-21 05:01N 39°37' W 074°06'7 6.4
2018-Jun-21 03:55N 39°32' W 074°12'3 6.2
2018-Jun-21 03:22N 39°29' W 074°14'2 6.1
2018-Jun-21 02:58N 39°27' W 074°16'4 6.0
2018-Jun-21 02:22N 39°24' W 074°18'2 6.0
2018-Jun-21 02:00N 39°22' W 074°20'4 6.2
2018-Jun-21 01:26N 39°19' W 074°23'5 6.5
2018-Jun-21 00:39N 39°16' W 074°28'3 6.5
2018-Jun-21 00:11N 39°14' W 074°31'1 6.5
2018-Jun-20 23:58N 39°13' W 074°32'3 6.7
2018-Jun-20 23:29N 39°10' W 074°34'12 6.7
2018-Jun-20 21:39N 38°60' W 074°43'3 6.8
2018-Jun-20 21:16N 38°58' W 074°45'2 6.6
2018-Jun-20 20:57N 38°56' W 074°47'3 6.5
2018-Jun-20 20:30N 38°54' W 074°49'3 6.7
2018-Jun-20 20:00N 38°52' W 074°52'4 6.6
2018-Jun-20 19:28N 38°50' W 074°56'3 5.7
2018-Jun-20 19:00N 38°48' W 074°59'2 4.6
2018-Jun-20 18:27N 38°48' W 075°02'2 4.5
2018-Jun-20 17:56N 38°49' W 075°05'2 3.9
2018-Jun-20 17:26N 38°49' W 075°08'2 0.2
2018-Jun-20 02:15N 38°48' W 075°10'0 0.0
2018-Jun-20 02:00N 38°48' W 075°10'0 0.0
2018-Jun-20 01:31N 38°48' W 075°10'0 0.0
2018-Jun-18 08:21N 38°48' W 075°10'0 0.0
2018-Jun-18 07:57N 38°48' W 075°10'0 0.0
2018-Jun-18 07:30N 38°48' W 075°10'0 0.0
2018-Jun-18 05:54N 38°48' W 075°10'0 0.0
2018-Jun-18 05:31N 38°48' W 075°10'16 0.4
2018-Jun-16 10:05N 38°32' W 075°03'0 0.3
2018-Jun-16 09:54N 38°32' W 075°03'0 0.1
2018-Jun-16 09:31N 38°32' W 075°03'0 0.0
2018-Jun-16 09:00N 38°32' W 075°03'0 0.0
2018-Jun-16 08:06N 38°32' W 075°03'0 0.1
2018-Jun-16 07:57N 38°32' W 075°03'17 0.8
2018-Jun-15 10:22N 38°48' W 075°10'0 0.0
2018-Jun-15 09:56N 38°48' W 075°10'0 0.0
2018-Jun-15 09:28N 38°48' W 075°10'0 0.0
2018-Jun-15 08:51N 38°48' W 075°10'0 0.0
2018-Jun-15 08:29N 38°48' W 075°10'0 0.0
2018-Jun-15 07:57N 38°48' W 075°10'0 0.0
2018-Jun-15 07:30N 38°48' W 075°10'0 0.0
2018-Jun-15 07:00N 38°48' W 075°10'0 0.0
2018-Jun-15 06:31N 38°48' W 075°10'0 0.0
2018-Jun-15 06:00N 38°48' W 075°10'0 0.0
2018-Jun-15 05:31N 38°48' W 075°10'0 0.0
2018-Jun-15 05:00N 38°48' W 075°10'0 0.0
2018-Jun-15 04:31N 38°48' W 075°10'0 0.1
2018-Jun-15 02:09N 38°48' W 075°10'0 1.6
2018-Jun-15 02:00N 38°48' W 075°10'0 0.0
2018-Jun-14 09:51N 38°48' W 075°10'0 0.0
2018-Jun-12 13:53N 38°48' W 075°10'0 0.0
2018-Jun-12 13:30N 38°48' W 075°10'0 0.0
2018-Jun-12 12:58N 38°48' W 075°10'0 0.0
2018-Jun-12 12:30N 38°48' W 075°10'0 0.0
2018-Jun-12 11:59N 38°48' W 075°10'0 0.0
2018-Jun-12 11:30N 38°48' W 075°10'0 0.0
2018-Jun-12 10:56N 38°48' W 075°10'0 0.0
2018-Jun-12 10:30N 38°48' W 075°10'0 0.0
2018-Jun-12 10:00N 38°48' W 075°10'0 0.0
2018-Jun-12 08:56N 38°48' W 075°10'0 0.0
2018-Jun-12 08:13N 38°48' W 075°10'0 0.0
2018-Jun-12 08:00N 38°48' W 075°10'0 0.0
2018-Jun-12 06:42N 38°48' W 075°10'0 0.0
2018-Jun-12 06:15N 38°48' W 075°10'0 0.0
2018-Jun-12 05:18N 38°48' W 075°10'0 0.0
2018-Jun-12 04:41N 38°48' W 075°10'0 0.0
2018-Jun-12 04:27N 38°48' W 075°10'0 0.0
2018-Jun-12 04:00N 38°48' W 075°10'0 0.0
2018-Jun-12 03:28N 38°48' W 075°10'0 0.0
2018-Jun-12 03:01N 38°48' W 075°10'0 0.0
2018-Jun-12 02:06N 38°48' W 075°10'0 0.0
2018-Jun-12 01:55N 38°48' W 075°10'0 0.0
2018-Jun-12 01:29N 38°48' W 075°10'0 0.0
2018-Jun-12 01:01N 38°48' W 075°10'0 0.0
2018-Jun-12 00:29N 38°48' W 075°10'  
Track history (hours):
 
Tides and Currents Weather Stations Pressure Air Temp Water Temp Dewpoint Dewpoint Depression Visibility Wind Speed Wind Dir Waves Ship Positions

Pops

Owner: GORE MARINE CORPORATION, MERIDIAN, GA. More information available from US FCC via Universal Licensing System and Coast Guard Vessel Documentation Center.

Last reported at 2018-Jun-21 20:07 UTC. Time now 2018-Jun-23 19:48 UTC.
Position N 40°33' W 074°02'.

Length 22 m; draft 3.5 m.

Type: Tug. MMSI: 367082540.

Date/timePositionNaut miles runAvg speedWind from/ knotsBaromVisibWave heightAir tempDewpointWater temp
2018-Jun-21 20:07N 40°33' W 074°02'1 5.8
2018-Jun-21 20:01N 40°34' W 074°02'3 5.8
2018-Jun-21 19:31N 40°36' W 074°03'3 5.6
2018-Jun-21 19:00N 40°39' W 074°05'3 6.4
2018-Jun-21 18:30N 40°38' W 074°09'0 0.3
2018-Jun-21 17:38N 40°38' W 074°09'0 0.1
2018-Jun-21 17:21N 40°38' W 074°09'0 0.3
2018-Jun-21 17:01N 40°38' W 074°09'4 7.3
2018-Jun-21 16:31N 40°39' W 074°04'3 6.4
2018-Jun-21 16:00N 40°36' W 074°03'45 5.1
2018-Jun-21 07:19N 39°51' W 074°00'2 6.6
2018-Jun-21 06:59N 39°49' W 074°01'3 6.6
2018-Jun-21 06:30N 39°46' W 074°01'3 6.6
2018-Jun-21 05:59N 39°43' W 074°02'3 6.5
2018-Jun-21 05:30N 39°40' W 074°03'3 6.6
2018-Jun-21 05:01N 39°37' W 074°06'7 6.4
2018-Jun-21 03:55N 39°32' W 074°12'3 6.2
2018-Jun-21 03:22N 39°29' W 074°14'2 6.1
2018-Jun-21 02:58N 39°27' W 074°16'4 6.0
2018-Jun-21 02:22N 39°24' W 074°18'2 6.0
2018-Jun-21 02:00N 39°22' W 074°20'4 6.2
2018-Jun-21 01:26N 39°19' W 074°23'5 6.5
2018-Jun-21 00:39N 39°16' W 074°28'3 6.5
2018-Jun-21 00:11N 39°14' W 074°31'1 6.5
2018-Jun-20 23:58N 39°13' W 074°32'3 6.7
2018-Jun-20 23:29N 39°10' W 074°34'12 6.7
2018-Jun-20 21:39N 38°60' W 074°43'3 6.8
2018-Jun-20 21:16N 38°58' W 074°45'2 6.6
2018-Jun-20 20:57N 38°56' W 074°47'3 6.5
2018-Jun-20 20:30N 38°54' W 074°49'3 6.7
2018-Jun-20 20:00N 38°52' W 074°52'4 6.6
2018-Jun-20 19:28N 38°50' W 074°56'3 5.7
2018-Jun-20 19:00N 38°48' W 074°59'2 4.6
2018-Jun-20 18:27N 38°48' W 075°02'2 4.5
2018-Jun-20 17:56N 38°49' W 075°05'2 3.9
2018-Jun-20 17:26N 38°49' W 075°08'2 0.2
2018-Jun-20 02:15N 38°48' W 075°10'0 0.0
2018-Jun-20 02:00N 38°48' W 075°10'0 0.0
2018-Jun-20 01:31N 38°48' W 075°10'0 0.0
2018-Jun-18 08:21N 38°48' W 075°10'0 0.0
2018-Jun-18 07:57N 38°48' W 075°10'0 0.0
2018-Jun-18 07:30N 38°48' W 075°10'0 0.0
2018-Jun-18 05:54N 38°48' W 075°10'0 0.0
2018-Jun-18 05:31N 38°48' W 075°10'16 0.4
2018-Jun-16 10:05N 38°32' W 075°03'0 0.3
2018-Jun-16 09:54N 38°32' W 075°03'0 0.1
2018-Jun-16 09:31N 38°32' W 075°03'0 0.0
2018-Jun-16 09:00N 38°32' W 075°03'0 0.0
2018-Jun-16 08:06N 38°32' W 075°03'0 0.1
2018-Jun-16 07:57N 38°32' W 075°03'17 0.8
2018-Jun-15 10:22N 38°48' W 075°10'0 0.0
2018-Jun-15 09:56N 38°48' W 075°10'0 0.0
2018-Jun-15 09:28N 38°48' W 075°10'0 0.0
2018-Jun-15 08:51N 38°48' W 075°10'0 0.0
2018-Jun-15 08:29N 38°48' W 075°10'0 0.0
2018-Jun-15 07:57N 38°48' W 075°10'0 0.0
2018-Jun-15 07:30N 38°48' W 075°10'0 0.0
2018-Jun-15 07:00N 38°48' W 075°10'0 0.0
2018-Jun-15 06:31N 38°48' W 075°10'0 0.0
2018-Jun-15 06:00N 38°48' W 075°10'0 0.0
2018-Jun-15 05:31N 38°48' W 075°10'0 0.0
2018-Jun-15 05:00N 38°48' W 075°10'0 0.0
2018-Jun-15 04:31N 38°48' W 075°10'0 0.1
2018-Jun-15 02:09N 38°48' W 075°10'0 1.6
2018-Jun-15 02:00N 38°48' W 075°10'0 0.0
2018-Jun-14 09:51N 38°48' W 075°10'0 0.0
2018-Jun-12 13:53N 38°48' W 075°10'0 0.0
2018-Jun-12 13:30N 38°48' W 075°10'0 0.0
2018-Jun-12 12:58N 38°48' W 075°10'0 0.0
2018-Jun-12 12:30N 38°48' W 075°10'0 0.0
2018-Jun-12 11:59N 38°48' W 075°10'0 0.0
2018-Jun-12 11:30N 38°48' W 075°10'0 0.0
2018-Jun-12 10:56N 38°48' W 075°10'0 0.0
2018-Jun-12 10:30N 38°48' W 075°10'0 0.0
2018-Jun-12 10:00N 38°48' W 075°10'0 0.0
2018-Jun-12 08:56N 38°48' W 075°10'0 0.0
2018-Jun-12 08:13N 38°48' W 075°10'0 0.0
2018-Jun-12 08:00N 38°48' W 075°10'0 0.0
2018-Jun-12 06:42N 38°48' W 075°10'0 0.0
2018-Jun-12 06:15N 38°48' W 075°10'0 0.0
2018-Jun-12 05:18N 38°48' W 075°10'0 0.0
2018-Jun-12 04:41N 38°48' W 075°10'0 0.0
2018-Jun-12 04:27N 38°48' W 075°10'0 0.0
2018-Jun-12 04:00N 38°48' W 075°10'0 0.0
2018-Jun-12 03:28N 38°48' W 075°10'0 0.0
2018-Jun-12 03:01N 38°48' W 075°10'0 0.0
2018-Jun-12 02:06N 38°48' W 075°10'0 0.0
2018-Jun-12 01:55N 38°48' W 075°10'0 0.0
2018-Jun-12 01:29N 38°48' W 075°10'0 0.0
2018-Jun-12 01:01N 38°48' W 075°10'0 0.0
2018-Jun-12 00:29N 38°48' W 075°10'  

Dump ship's entire track history